Terminal Aerodrome Forecast
Issued by NWS St Louis, MO

Home | Current Version | Previous Version | Text Only | Print | Product List | Glossary On
Versions: 1 2 3 4 5 6 7 8 9 10 11 12 13 14 15 16 17 18 19 20 21 22 23 24 25 26
000
FTUS43 KLSX 190100 AAB
TAFCOU
TAF AMD
KCOU 190153Z 1902/1924 10007KT P6SM VCTS SCT050CB BKN150
     FM190300 10007KT P6SM SCT050 BKN150
     FM191100 20005KT 5SM -SHRA OVC040
     FM191500 26007KT 6SM -SHRA OVC040
     FM191900 26009KT P6SM BKN040=

USA.gov is the U.S. government's official web portal to all federal, state and local government web resources and services.